Time;durP1;ratioP1;P1;durP2;ratioP2;P2;SDS_P1;SDS_P2;PMS_P1;PMS_P2;Temp;Humidity;BMP_temperature;BMP_pressure;BME280_temperature;BME280_humidity;BME280_pressure;Samples;Min_cycle;Max_cycle;Signal;HPM_P1;HPM_P2
2023/03/29 00:02:00;;;;;;;7.47;3.35;;;51.80;2227.20;;;;;;4896881;29;20427;-78
2023/03/29 00:04:29;;;;;;;6.45;3.42;;;51.60;2227.20;;;;;;4897311;29;20042;-78
2023/03/29 00:06:54;;;;;;;7.32;3.47;;;51.50;2227.20;;;;;;4896691;29;20040;-79
2023/03/29 00:09:21;;;;;;;7.55;3.40;;;51.50;2227.20;;;;;;4898214;29;20105;-78
2023/03/29 00:11:46;;;;;;;6.72;3.50;;;51.50;2227.20;;;;;;4895485;29;20051;-79
2023/03/29 00:14:12;;;;;;;5.97;3.33;;;51.40;2227.20;;;;;;4894721;29;20036;-78
2023/03/29 00:16:38;;;;;;;8.63;3.58;;;51.40;2227.20;;;;;;4895353;29;20093;-78
2023/03/29 00:19:04;;;;;;;8.88;3.42;;;51.40;2227.20;;;;;;4893156;29;20123;-79
2023/03/29 00:21:31;;;;;;;7.10;3.33;;;51.30;2227.20;;;;;;4894088;29;20044;-79
2023/03/29 00:23:57;;;;;;;5.97;2.85;;;51.20;2227.20;;;;;;4894335;29;20119;-79
2023/03/29 00:26:23;;;;;;;7.35;3.63;;;51.30;2227.20;;;;;;4889314;29;20443;-79
2023/03/29 00:28:49;;;;;;;7.90;3.30;;;51.30;2227.20;;;;;;4894977;29;20060;-78
2023/03/29 00:31:16;;;;;;;7.05;3.60;;;51.30;2227.20;;;;;;4894271;29;20407;-78
2023/03/29 00:33:44;;;;;;;7.35;3.63;;;51.20;2227.20;;;;;;4894213;29;20033;-78
2023/03/29 00:36:11;;;;;;;8.38;3.38;;;51.20;2227.20;;;;;;4892718;29;20094;-78
2023/03/29 00:38:38;;;;;;;6.70;3.50;;;51.20;2227.20;;;;;;4895261;29;20547;-79
2023/03/29 00:41:05;;;;;;;5.95;3.28;;;51.20;2227.20;;;;;;4903813;29;20056;-78
2023/03/29 00:44:00;;;;;;;6.25;3.10;;;51.20;2227.20;;;;;;4894340;29;20035;-78
2023/03/29 00:46:26;;;;;;;;;;;51.20;2227.20;;;;;;4895968;29;20056;-78
2023/03/29 00:48:54;;;;;;;5.85;2.97;;;51.20;2227.20;;;;;;4895389;29;19912;-78
2023/03/29 00:51:23;;;;;;;5.50;2.88;;;51.20;2227.20;;;;;;4914559;29;20139;-78
2023/03/29 00:53:54;;;;;;;7.15;3.40;;;51.20;2227.20;;;;;;4916688;29;20031;-78
2023/03/29 00:56:50;;;;;;;7.45;3.20;;;26.50;2201.60;;;;;;4914871;29;20095;-78
2023/03/29 00:59:20;;;;;;;7.78;3.40;;;26.50;2201.60;;;;;;4873946;29;20045;-79
2023/03/29 01:02:06;;;;;;;5.63;3.03;;;26.50;2201.60;;;;;;4878321;29;20037;-78
2023/03/29 01:04:40;;;;;;;8.85;3.80;;;26.50;2201.60;;;;;;4925419;23;20066;-78
2023/03/29 01:07:16;;;;;;;8.10;3.95;;;26.50;2201.60;;;;;;4881457;29;20499;-78
2023/03/29 01:09:46;;;;;;;9.38;4.00;;;26.50;2201.60;;;;;;4875489;29;20041;-78
2023/03/29 01:12:21;;;;;;;6.43;3.10;;;26.50;2201.60;;;;;;4876749;29;20068;-79
2023/03/29 01:14:57;;;;;;;6.85;3.40;;;26.40;2201.60;;;;;;4874678;29;20041;-78
2023/03/29 01:17:24;;;;;;;6.63;3.38;;;26.40;2201.60;;;;;;4874886;29;20470;-78
2023/03/29 01:20:01;;;;;;;8.10;3.80;;;26.40;2201.60;;;;;;4874782;29;20508;-79
2023/03/29 01:22:45;;;;;;;7.90;3.28;;;26.30;2201.60;;;;;;4877203;29;20043;-78
2023/03/29 01:25:29;;;;;;;11.05;3.63;;;26.30;2201.60;;;;;;4875088;29;20025;-78
2023/03/29 01:28:12;;;;;;;8.52;4.05;;;26.20;2201.60;;;;;;4877709;29;20080;-78
2023/03/29 01:30:48;;;;;;;6.97;3.20;;;26.30;2201.60;;;;;;4876639;29;20032;-78
2023/03/29 01:33:29;;;;;;;6.30;3.10;;;26.20;2201.60;;;;;;4885830;29;20100;-80
2023/03/29 01:36:04;;;;;;;8.23;3.33;;;26.20;2201.60;;;;;;4886906;29;20377;-79
2023/03/29 01:38:38;;;;;;;8.57;3.67;;;26.30;2201.60;;;;;;4885113;29;20120;-78
2023/03/29 01:41:04;;;;;;;8.40;2.97;;;26.20;2201.60;;;;;;4886956;29;21700;-78
2023/03/29 01:44:02;;;;;;;8.45;3.50;;;26.30;2201.60;;;;;;4887738;29;20436;-78
2023/03/29 01:46:49;;;;;;;10.23;3.67;;;26.20;2201.60;;;;;;4888112;29;20033;-79
2023/03/29 01:49:28;;;;;;;8.05;3.40;;;26.10;2201.60;;;;;;4887817;29;20044;-78
2023/03/29 01:52:19;;;;;;;8.20;3.63;;;26.10;2201.60;;;;;;4887081;29;20101;-79
2023/03/29 01:54:54;;;;;;;9.73;3.53;;;26.10;2201.60;;;;;;4882890;29;20037;-80
2023/03/29 01:57:21;;;;;;;9.80;3.45;;;26.10;2201.60;;;;;;4883562;29;20158;-79
2023/03/29 01:59:48;;;;;;;8.55;3.67;;;26.10;2201.60;;;;;;4878536;29;20070;-79
2023/03/29 02:02:17;;;;;;;7.82;3.30;;;26.10;2201.60;;;;;;4880631;29;20072;-79
2023/03/29 02:04:51;;;;;;;9.05;3.45;;;26.10;2201.60;;;;;;4884168;29;20070;-79
2023/03/29 02:07:21;;;;;;;5.43;3.23;;;26.30;2201.60;;;;;;4899257;29;20044;-79
2023/03/29 02:09:51;;;;;;;6.53;2.92;;;26.00;2201.60;;;;;;4900868;29;20032;-79
2023/03/29 02:12:17;;;;;;;5.95;3.45;;;26.10;2201.60;;;;;;4901642;29;20064;-79
2023/03/29 02:14:43;;;;;;;6.70;2.95;;;26.00;2201.60;;;;;;4907790;29;20467;-80
2023/03/29 02:17:26;;;;;;;7.10;3.10;;;26.00;2201.60;;;;;;4907762;29;20040;-79
2023/03/29 02:20:13;;;;;;;7.63;3.50;;;26.00;2201.60;;;;;;4916692;29;20028;-79
2023/03/29 02:22:46;;;;;;;7.68;3.28;;;26.00;2201.60;;;;;;4915042;29;20059;-79
2023/03/29 02:25:12;;;;;;;9.93;3.80;;;25.90;2201.60;;;;;;4915835;29;20021;-79
2023/03/29 02:27:38;;;;;;;6.68;3.55;;;25.90;2201.60;;;;;;4913039;29;20033;-80
2023/03/29 02:30:06;;;;;;;6.35;3.38;;;25.90;2201.60;;;;;;4913403;29;20123;-80
2023/03/29 02:33:12;;;;;;;7.05;3.67;;;25.90;2201.60;;;;;;4914333;29;20037;-80
2023/03/29 02:35:44;;;;;;;8.27;3.83;;;26.00;2201.60;;;;;;4913912;29;20039;-80
2023/03/29 02:38:10;;;;;;;8.05;4.60;;;26.00;2201.60;;;;;;4913565;29;20028;-79
2023/03/29 02:40:38;;;;;;;9.57;4.47;;;26.00;2201.60;;;;;;4913568;29;20072;-81
2023/03/29 02:43:05;;;;;;;7.82;3.92;;;26.00;2201.60;;;;;;4912613;29;20481;-80
2023/03/29 02:45:32;;;;;;;9.07;4.93;;;26.00;2201.60;;;;;;4914028;29;20040;-79
2023/03/29 02:48:03;;;;;;;7.65;4.45;;;25.90;2201.60;;;;;;4911285;29;20040;-80
2023/03/29 02:50:35;;;;;;;8.15;4.28;;;25.90;2201.60;;;;;;4901298;29;20465;-80
2023/03/29 02:53:08;;;;;;;8.55;4.20;;;25.90;2201.60;;;;;;4912110;29;20732;-79
2023/03/29 02:55:35;;;;;;;8.35;4.30;;;;;;;;;;4909038;29;20035;-80
2023/03/29 02:58:08;;;;;;;6.95;3.80;;;;;;;;;;4898956;29;20029;-79
2023/03/29 03:00:37;;;;;;;7.22;3.47;;;;;;;;;;4908144;29;20041;-80
2023/03/29 03:03:06;;;;;;;6.53;3.20;;;;;;;;;;4908147;29;20024;-80
2023/03/29 03:05:32;;;;;;;8.73;3.78;;;;;;;;;;4909848;29;20057;-78
2023/03/29 03:07:59;;;;;;;6.57;3.60;;;;;;;;;;4900491;29;20036;-80
2023/03/29 03:10:25;;;;;;;6.18;3.10;;;;;;;;;;4914691;29;20056;-80
2023/03/29 03:12:51;;;;;;;6.47;3.25;;;;;;;;;;4916096;29;20028;-80
2023/03/29 03:15:17;;;;;;;9.75;3.90;;;;;;;;;;4913488;29;20044;-80
2023/03/29 03:17:45;;;;;;;7.75;3.40;;;;;;;;;;4911950;29;20099;-79
2023/03/29 03:20:12;;;;;;;6.70;3.22;;;;;;;;;;4913001;29;20032;-79
2023/03/29 03:22:41;;;;;;;11.45;3.40;;;;;;;;;;4910009;29;20051;-79
2023/03/29 03:25:10;;;;;;;9.55;3.40;;;;;;;;;;4897314;29;20043;-80
2023/03/29 03:27:38;;;;;;;5.30;3.13;;;;;;;;;;4911300;29;20059;-79
2023/03/29 03:30:05;;;;;;;5.63;3.10;;;;;;;;;;4913369;29;20040;-80
2023/03/29 03:32:32;;;;;;;6.80;3.28;;;;;;;;;;4918396;29;20031;-81
2023/03/29 03:34:58;;;;;;;8.05;3.35;;;;;;;;;;4913505;29;20033;-80
2023/03/29 03:37:24;;;;;;;8.10;3.50;;;;;;;;;;4911254;29;20115;-80
2023/03/29 03:39:50;;;;;;;7.47;3.67;;;;;;;;;;4914608;29;20099;-79
2023/03/29 03:42:17;;;;;;;7.25;3.75;;;;;;;;;;4914747;29;20044;-79
2023/03/29 03:44:43;;;;;;;7.15;3.95;;;;;;;;;;4897417;29;20028;-80
2023/03/29 03:47:09;;;;;;;10.98;4.82;;;;;;;;;;4913734;29;20028;-80
2023/03/29 03:49:36;;;;;;;11.25;5.57;;;;;;;;;;4914482;29;20028;-80
2023/03/29 03:52:02;;;;;;;11.45;4.50;;;;;;;;;;4920544;29;20033;-81
2023/03/29 03:54:28;;;;;;;10.25;4.10;;;;;;;;;;4914241;29;20039;-81
2023/03/29 03:56:54;;;;;;;6.82;3.95;;;;;;;;;;4917782;29;20043;-80
2023/03/29 03:59:21;;;;;;;8.43;4.40;;;;;;;;;;4911411;29;20039;-80
2023/03/29 04:01:47;;;;;;;19.25;8.88;;;;;;;;;;4915439;29;20045;-79
2023/03/29 04:04:13;;;;;;;85.38;41.00;;;;;;;;;;4914771;29;20056;-80
2023/03/29 04:06:39;;;;;;;82.95;47.33;;;;;;;;;;4899539;29;20044;-81
2023/03/29 04:09:05;;;;;;;67.50;45.30;;;;;;;;;;4917485;29;20068;-80
2023/03/29 04:11:32;;;;;;;69.32;27.42;;;;;;;;;;4918983;29;20068;-79
2023/03/29 04:13:58;;;;;;;22.15;8.63;;;;;;;;;;4925658;29;20124;-79
2023/03/29 04:16:25;;;;;;;59.50;23.73;;;;;;;;;;4927701;29;20044;-78
2023/03/29 04:18:51;;;;;;;29.27;15.30;;;;;;;;;;4923229;29;20046;-79
2023/03/29 04:21:17;;;;;;;9.23;5.20;;;;;;;;;;4900233;29;20059;-79
2023/03/29 04:23:45;;;;;;;10.43;4.68;;;;;;;;;;4924588;29;20020;-81
2023/03/29 04:26:12;;;;;;;15.00;5.07;;;;;;;;;;4920630;29;20031;-80
2023/03/29 04:28:38;;;;;;;13.00;6.03;;;;;;;;;;4922133;29;20074;-82
2023/03/29 04:31:05;;;;;;;14.40;7.13;;;;;;;;;;4922458;29;20547;-82
2023/03/29 04:36:35;;;;;;;13.85;6.53;;;;;;;;;;4921007;29;20119;-81
2023/03/29 04:39:03;;;;;;;11.15;5.90;;;;;;;;;;4921444;29;20088;-79
2023/03/29 04:41:29;;;;;;;16.45;7.22;;;;;;;;;;4922803;29;20052;-79
2023/03/29 04:43:55;;;;;;;25.10;11.38;;;;;;;;;;4919503;29;20036;-80
2023/03/29 04:46:25;;;;;;;18.05;10.98;;;;;;;;;;4916630;29;20032;-79
2023/03/29 04:48:51;;;;;;;86.78;45.35;;;;;;;;;;4919513;29;20040;-78
2023/03/29 04:51:17;;;;;;;142.15;78.38;;;;;;;;;;4926461;29;20056;-78
2023/03/29 04:53:43;;;;;;;108.60;63.40;;;;;;;;;;4923494;29;20024;-76
2023/03/29 04:56:09;;;;;;;37.13;20.67;;;;;;;;;;4907230;29;20511;-76
2023/03/29 04:58:35;;;;;;;29.10;14.98;;;;;;;;;;4923514;29;20030;-77
2023/03/29 05:01:02;;;;;;;29.15;13.70;;;;;;;;;;4909104;29;20444;-77
2023/03/29 05:03:28;;;;;;;26.08;12.60;;;;;;;;;;4921872;29;20024;-77
2023/03/29 05:05:54;;;;;;;40.13;23.00;;;;;;;;;;4906587;29;20068;-77
2023/03/29 05:08:20;;;;;;;118.85;67.40;;;51.30;2227.20;;;;;;4922809;29;20033;-77
2023/03/29 05:10:46;;;;;;;29.13;16.48;;;26.40;2201.60;;;;;;4923897;29;20035;-77
2023/03/29 05:13:12;;;;;;;116.63;67.18;;;26.50;2201.60;;;;;;4904274;29;20502;-77
2023/03/29 05:15:37;;;;;;;155.75;62.15;;;51.20;2227.20;;;;;;4900669;29;20032;-77
2023/03/29 05:18:04;;;;;;;56.70;20.88;;;51.30;2227.20;;;;;;4919715;29;20039;-79
2023/03/29 05:20:30;;;;;;;31.58;12.75;;;51.30;2227.20;;;;;;4907849;29;20056;-77
2023/03/29 05:22:56;;;;;;;30.25;10.88;;;51.30;2227.20;;;;;;4924086;29;20036;-77
2023/03/29 05:25:22;;;;;;;20.33;9.07;;;51.40;2227.20;;;;;;4923294;29;20131;-77
2023/03/29 05:27:47;;;;;;;16.55;7.90;;;51.40;2227.20;;;;;;4920281;29;20044;-78
2023/03/29 05:30:14;;;;;;;18.48;8.15;;;51.40;2227.20;;;;;;4922121;29;20025;-80
2023/03/29 05:32:41;;;;;;;23.33;12.32;;;51.40;2227.20;;;;;;4906513;29;20036;-77
2023/03/29 05:35:08;;;;;;;21.25;9.55;;;51.30;2227.20;;;;;;4924584;29;20035;-77
2023/03/29 05:37:34;;;;;;;21.38;9.77;;;51.40;2227.20;;;;;;4920794;29;20096;-79
2023/03/29 05:40:00;;;;;;;26.35;11.70;;;51.50;2227.20;;;;;;4926466;29;20032;-78
2023/03/29 05:42:26;;;;;;;33.72;15.63;;;51.50;2227.20;;;;;;4887667;29;20142;-78
2023/03/29 05:44:52;;;;;;;26.25;13.95;;;51.70;2227.20;;;;;;4925090;29;20028;-78
2023/03/29 05:47:58;;;;;;;21.42;10.70;;;51.80;2227.20;;;;;;4927260;29;20035;-78
2023/03/29 05:50:23;;;;;;;18.77;9.40;;;51.80;2227.20;;;;;;4924031;29;20032;-77
2023/03/29 05:52:49;;;;;;;19.63;10.30;;;52.00;2227.20;;;;;;4922188;29;20092;-77
2023/03/29 05:55:15;;;;;;;14.80;8.52;;;76.80;2227.20;;;;;;4923075;29;20023;-76
2023/03/29 05:57:41;;;;;;;14.70;8.27;;;76.90;2227.20;;;;;;4920681;29;20056;-77
2023/03/29 06:00:22;;;;;;;16.23;8.68;;;77.00;2227.20;;;;;;4915551;29;20096;-78
2023/03/29 06:02:51;;;;;;;14.70;8.27;;;77.10;2227.20;;;;;;4901610;29;20051;-79
2023/03/29 06:05:18;;;;;;;19.50;11.45;;;77.20;2227.20;;;;;;4918206;29;20044;-76
2023/03/29 06:07:45;;;;;;;12.25;7.57;;;77.30;2227.20;;;;;;4902984;29;20036;-76
2023/03/29 06:10:11;;;;;;;20.17;11.73;;;77.40;2227.20;;;;;;4902190;29;20056;-77
2023/03/29 06:12:37;;;;;;;21.92;12.52;;;77.60;2227.20;;;;;;4913411;29;20029;-76
2023/03/29 06:15:04;;;;;;;18.05;10.45;;;77.60;2227.20;;;;;;4914172;29;20036;-76
2023/03/29 06:17:32;;;;;;;21.42;10.73;;;102.40;2227.20;;;;;;4913042;29;20032;-76
2023/03/29 06:19:58;;;;;;;18.65;9.60;;;102.70;2227.20;;;;;;4906948;29;20575;-77
2023/03/29 06:22:24;;;;;;;17.55;9.57;;;128.20;2252.80;;;;;;4896401;29;20064;-79
2023/03/29 06:24:50;;;;;;;18.38;10.77;;;179.70;2252.80;;;;;;4910342;29;20036;-79
2023/03/29 06:27:16;;;;;;;17.23;8.73;;;204.80;2252.80;;;;;;4914406;29;20411;-80
2023/03/29 06:29:42;;;;;;;20.13;9.95;;;179.80;2252.80;;;;;;4893594;29;20025;-79
2023/03/29 06:32:08;;;;;;;23.13;13.55;;;;;;;;;;4878850;29;20036;-79
2023/03/29 06:34:34;;;;;;;22.85;11.45;;;;;;;;;;4886599;29;20037;-80
2023/03/29 06:37:00;;;;;;;16.17;8.70;;;;;;;;;;4905466;29;20424;-79
2023/03/29 06:39:51;;;;;;;13.57;7.10;;;358.80;1561.60;;;;;;4916833;29;20032;-82
2023/03/29 06:42:19;;;;;;;16.38;9.10;;;358.70;1536.00;;;;;;4918549;29;20092;-82
2023/03/29 06:44:49;;;;;;;16.40;9.25;;;409.70;1484.80;;;;;;4916706;29;20040;-82
2023/03/29 06:51:07;;;;;;;14.85;7.50;;;358.70;1408.00;;;;;;4903514;29;20028;-82
2023/03/29 06:53:37;;;;;;;16.40;9.48;;;359.30;1408.00;;;;;;4880832;29;20479;-80
2023/03/29 06:56:07;;;;;;;16.20;8.23;;;358.40;1459.20;;;;;;4916816;29;20036;-82
2023/03/29 06:58:34;;;;;;;15.98;7.47;;;333.30;1408.00;;;;;;4890879;29;20051;-81
2023/03/29 07:01:02;;;;;;;15.20;6.50;;;307.60;1382.40;;;;;;4898342;29;20041;-81
2023/03/29 07:03:48;;;;;;;12.63;6.60;;;;;;;;;;4887154;29;20396;-81
2023/03/29 07:06:16;;;;;;;8.88;5.45;;;487.20;1126.40;;;;;;4892248;29;20100;-80
2023/03/29 07:08:42;;;;;;;17.40;6.28;;;512.10;1024.00;;;;;;4885577;29;20028;-81
2023/03/29 07:11:12;;;;;;;8.73;4.15;;;486.60;1049.60;;;;;;4900354;29;20494;-81
2023/03/29 07:13:42;;;;;;;6.72;3.40;;;461.20;1024.00;;;;;;4908038;29;20477;-81
2023/03/29 07:16:39;;;;;;;5.72;2.60;;;461.20;1433.60;;;;;;4896950;29;20040;-82
2023/03/29 07:19:13;;;;;;;8.55;4.50;;;461.40;1280.00;;;;;;4879225;29;20105;-82
2023/03/29 07:21:39;;;;;;;9.02;4.90;;;;;;;;;;4858445;29;20449;-80
2023/03/29 07:24:05;;;;;;;6.60;4.07;;;512.50;947.20;;;;;;4851622;29;20029;-81
2023/03/29 07:26:31;;;;;;;4.95;2.88;;;512.20;947.20;;;;;;4846473;29;20038;-80
2023/03/29 07:28:59;;;;;;;5.93;3.17;;;;;;;;;;4865322;29;20040;-80
2023/03/29 07:31:28;;;;;;;4.32;2.80;;;486.60;947.20;;;;;;4861063;29;20049;-81
2023/03/29 07:37:16;;;;;;;5.85;3.00;;;436.10;1024.00;;;;;;4847356;29;20149;-80
2023/03/29 07:40:02;;;;;;;8.60;3.10;;;435.60;1049.60;;;;;;4843505;29;20121;-81
2023/03/29 07:42:28;;;;;;;5.28;2.92;;;435.70;1049.60;;;;;;4851980;29;20045;-81
2023/03/29 07:44:55;;;;;;;7.30;3.10;;;410.30;1075.20;;;;;;4864825;29;20034;-80
2023/03/29 07:47:47;;;;;;;7.82;3.20;;;384.60;1049.60;;;;;;4868700;29;20045;-81
2023/03/29 07:50:16;;;;;;;6.25;3.30;;;384.30;1100.80;;;;;;4840648;29;20038;-81
2023/03/29 07:52:43;;;;;;;6.55;3.30;;;359.30;1126.40;;;;;;4881749;29;20138;-81
2023/03/29 07:55:11;;;;;;;6.97;3.35;;;359.20;1126.40;;;;;;4880869;29;20046;-81
2023/03/29 07:57:40;;;;;;;7.80;3.10;;;359.00;1152.00;;;;;;4884669;29;20018;-81
2023/03/29 08:00:10;;;;;;;4.95;2.63;;;358.60;1152.00;;;;;;4881800;29;20101;-80
2023/03/29 08:06:02;;;;;;;5.57;3.30;;;333.50;1228.80;;;;;;4920901;29;20052;-80
2023/03/29 08:08:27;;;;;;;5.38;2.85;;;333.10;1203.20;;;;;;4922327;29;20122;-79
2023/03/29 08:10:55;;;;;;;6.88;2.97;;;307.20;1228.80;;;;;;4922526;29;20071;-80
2023/03/29 08:13:20;;;;;;;4.90;2.70;;;282.20;1254.40;;;;;;4905851;29;20068;-80
2023/03/29 08:15:49;;;;;;;6.43;2.63;;;307.50;1280.00;;;;;;4921757;29;20052;-80
2023/03/29 08:18:16;;;;;;;6.97;3.10;;;307.60;1280.00;;;;;;4914976;29;20180;-77
2023/03/29 08:20:42;;;;;;;5.45;3.15;;;307.90;1254.40;;;;;;4913529;29;20055;-79
2023/03/29 08:23:08;;;;;;;6.95;2.70;;;308.10;1254.40;;;;;;4902385;29;20025;-81
2023/03/29 08:25:35;;;;;;;5.53;2.80;;;332.80;1228.80;;;;;;4916232;29;20033;-79
2023/03/29 08:28:01;;;;;;;5.75;2.63;;;307.70;1228.80;;;;;;4920251;29;20025;-80
2023/03/29 08:30:27;;;;;;;5.50;2.15;;;307.30;1280.00;;;;;;4921015;29;20017;-79
2023/03/29 08:32:54;;;;;;;6.10;2.92;;;282.50;1228.80;;;;;;4921336;29;20008;-81
2023/03/29 08:35:23;;;;;;;7.60;3.65;;;281.90;1433.60;;;;;;4925843;23;20017;-76
2023/03/29 08:46:27;;;;;;;6.43;3.55;;;282.20;1305.60;;;;;;4666455;27;20056;-80
2023/03/29 08:48:57;;;;;;;6.45;3.72;;;281.70;1305.60;;;;;;4881776;29;20045;-80
2023/03/29 08:51:55;;;;;;;12.63;7.88;;;281.60;1331.20;;;;;;4882434;29;20162;-80
2023/03/29 08:57:40;;;;;;;8.70;5.30;;;281.60;1331.20;;;;;;4919272;29;20047;-78
2023/03/29 09:03:41;;;;;;;5.25;2.80;;;282.30;1280.00;;;;;;5218389;23;20044;-80
2023/03/29 09:18:57;;;;;;;4.22;2.55;;;308.00;1305.60;;;;;;1535169;23;20387;-78
2023/03/29 09:22:29;;;;;;;11.48;6.15;;;308.10;1280.00;;;;;;4929920;23;20144;-81
2023/03/29 09:39:29;;;;;;;5.03;3.10;;;282.50;1305.60;;;;;;4776865;23;19919;-80
2023/03/29 09:42:34;;;;;;;3.70;1.88;;;307.80;1305.60;;;;;;4920566;29;20132;-79
2023/03/29 09:45:38;;;;;;;27.73;15.32;;;333.00;1280.00;;;;;;4888389;29;20089;-80
2023/03/29 09:48:37;;;;;;;5.72;2.70;;;358.40;1254.40;;;;;;5228744;23;20056;-80
2023/03/29 09:51:05;;;;;;;4.53;1.85;;;358.40;1254.40;;;;;;4940508;29;20036;-79
2023/03/29 09:53:39;;;;;;;6.60;3.75;;;358.40;1280.00;;;;;;4923495;29;20043;-79
2023/03/29 10:07:59;;;;;;;3.75;2.08;;;333.00;1305.60;;;;;;3145983;23;20060;-80
2023/03/29 10:14:38;;;;;;;8.18;4.25;;;307.30;1356.80;;;;;;4882644;29;20070;-80
2023/03/29 10:20:44;;;;;;;9.57;3.10;;;307.50;1305.60;;;;;;4805952;30;20030;-79
2023/03/29 10:26:31;;;;;;;8.40;4.00;;;308.00;1305.60;;;;;;557621;23;20437;-78
2023/03/29 10:29:05;;;;;;;8.80;3.72;;;333.20;1280.00;;;;;;4936077;23;25081;-78
2023/03/29 10:31:41;;;;;;;13.18;5.38;;;333.00;1254.40;;;;;;4915234;29;20048;-80
2023/03/29 10:34:36;;;;;;;9.15;4.20;;;332.80;1305.60;;;;;;4910365;29;20039;-79
2023/03/29 10:37:35;;;;;;;13.15;7.72;;;307.70;1305.60;;;;;;4943144;29;20080;-81
2023/03/29 10:40:31;;;;;;;19.05;10.50;;;307.40;1356.80;;;;;;4932498;29;20023;-79
2023/03/29 10:43:39;;;;;;;6.25;3.60;;;307.40;1356.80;;;;;;4842884;29;20051;-79
2023/03/29 10:46:41;;;;;;;6.20;3.28;;;332.90;1331.20;;;;;;4848197;29;20038;-80
2023/03/29 10:49:45;;;;;;;8.75;3.08;;;332.90;1280.00;;;;;;4865069;29;20026;-80
2023/03/29 10:52:16;;;;;;;8.18;4.07;;;333.20;1254.40;;;;;;4865677;29;20042;-80
2023/03/29 10:54:42;;;;;;;10.23;5.60;;;333.50;1254.40;;;;;;4849777;29;20085;-80
2023/03/29 10:57:35;;;;;;;4.43;2.00;;;333.70;1254.40;;;;;;4866964;29;20038;-81
2023/03/29 11:01:06;;;;;;;5.35;2.55;;;358.40;1228.80;;;;;;5306281;23;20804;-80
2023/03/29 11:04:33;;;;;;;9.52;4.15;;;384.10;1177.60;;;;;;4863484;29;20057;-81
2023/03/29 11:10:09;;;;;;;24.35;15.73;;;359.10;1177.60;;;;;;5146793;23;20137;-81
2023/03/29 11:31:26;;;;;;;6.45;3.72;;;333.40;1254.40;;;;;;5281750;23;20048;-81
2023/03/29 11:34:58;;;;;;;6.75;3.40;;;333.60;1228.80;;;;;;4922276;29;20024;-80
2023/03/29 11:41:01;;;;;;;12.82;4.93;;;333.00;1868.80;;;;;;4997210;23;20060;-80
2023/03/29 11:43:59;;;;;;;11.80;5.82;;;332.80;1356.80;;;;;;4916781;29;20028;-81
2023/03/29 11:46:37;;;;;;;7.90;4.13;;;308.00;1254.40;;;;;;4904947;29;20176;-81
2023/03/29 11:49:25;;;;;;;13.85;8.38;;;333.20;1254.40;;;;;;4983181;23;20071;-81
2023/03/29 11:54:37;;;;;;;13.02;6.05;;;308.10;1254.40;;;;;;4958135;23;20040;-79
2023/03/29 11:57:22;;;;;;;14.13;7.63;;;333.60;1280.00;;;;;;4899603;29;20041;-79
2023/03/29 12:00:20;;;;;;;83.35;33.13;;;333.10;1280.00;;;;;;4935464;29;20028;-79
2023/03/29 12:03:12;;;;;;;9.60;4.35;;;333.40;1254.40;;;;;;4936995;29;20040;-80
2023/03/29 12:06:11;;;;;;;7.65;3.65;;;358.60;1228.80;;;;;;4935513;29;20036;-79
2023/03/29 12:14:15;;;;;;;9.52;4.28;;;359.20;1177.60;;;;;;2332855;23;20048;-79
2023/03/29 12:16:55;;;;;;;6.03;3.00;;;359.10;1177.60;;;;;;4918459;29;20029;-79
2023/03/29 12:19:27;;;;;;;7.22;3.47;;;358.80;1152.00;;;;;;4901087;29;20038;-80
2023/03/29 12:21:57;;;;;;;18.80;12.80;;;359.00;1152.00;;;;;;4919220;29;20063;-79
2023/03/29 12:25:06;;;;;;;8.63;4.55;;;359.10;1484.80;;;;;;4900175;29;20033;-80
2023/03/29 12:28:11;;;;;;;5.65;3.13;;;384.30;1945.60;;;;;;4917217;29;20017;-80
2023/03/29 12:31:16;;;;;;;7.43;3.95;;;384.10;1177.60;;;;;;5197620;23;20115;-81
2023/03/29 12:38:23;;;;;;;7.43;3.67;;;359.10;1203.20;;;;;;4898489;29;20118;-80
2023/03/29 12:41:50;;;;;;;6.70;3.45;;;358.80;1126.40;;;;;;4893014;29;20051;-79
2023/03/29 12:44:26;;;;;;;8.05;3.33;;;359.00;1152.00;;;;;;5029880;23;20040;-80
2023/03/29 12:58:20;;;;;;;6.55;2.90;;;358.80;1228.80;;;;;;4792210;23;20056;-78
2023/03/29 13:00:49;;;;;;;11.95;6.20;;;358.50;1177.60;;;;;;4903420;29;20032;-78
2023/03/29 13:03:26;;;;;;;7.40;4.00;;;358.40;1228.80;;;;;;4969418;23;20057;-79
2023/03/29 13:06:07;;;;;;;7.40;3.40;;;358.40;1228.80;;;;;;4923108;29;20037;-79
2023/03/29 13:13:52;;;;;;;9.38;4.60;;;358.50;1177.60;;;;;;5191461;23;20007;-80
2023/03/29 13:16:27;;;;;;;7.07;3.78;;;333.50;1203.20;;;;;;5382283;23;20032;-79
2023/03/29 13:24:25;;;;;;;11.73;5.80;;;333.00;1228.80;;;;;;4916047;29;20426;-78
2023/03/29 13:27:29;;;;;;;9.32;5.45;;;333.50;1203.20;;;;;;4907269;29;20037;-78
2023/03/29 13:29:59;;;;;;;4.60;2.50;;;358.40;1203.20;;;;;;4917576;29;20102;-78
2023/03/29 13:42:24;;;;;;;8.55;6.20;;;359.10;1203.20;;;;;;4916289;29;20052;-77
2023/03/29 13:45:16;;;;;;;6.93;2.95;;;358.40;1203.20;;;;;;4917504;29;20053;-79
2023/03/29 13:47:46;;;;;;;14.30;7.22;;;;;;;;;;4938985;23;20052;-79
2023/03/29 13:52:59;;;;;;;6.72;2.63;;;358.50;1228.80;;;;;;5074809;23;20502;-79
2023/03/29 13:55:41;;;;;;;8.55;4.75;;;358.50;1203.20;;;;;;4941658;29;20060;-79
2023/03/29 13:58:54;;;;;;;7.07;4.45;;;358.70;1203.20;;;;;;4922582;29;20029;-79
2023/03/29 14:02:01;;;;;;;7.80;3.53;;;358.50;1228.80;;;;;;4882398;29;20037;-80
2023/03/29 14:04:45;;;;;;;7.32;4.43;;;333.70;1228.80;;;;;;4817692;29;20045;-79
2023/03/29 14:07:45;;;;;;;9.27;4.45;;;333.40;1203.20;;;;;;4828793;29;20047;-79
2023/03/29 14:10:41;;;;;;;15.73;7.90;;;333.40;1228.80;;;;;;4812974;29;20027;-81
2023/03/29 14:13:42;;;;;;;16.33;7.68;;;333.40;1254.40;;;;;;4777791;29;20547;-81
2023/03/29 14:16:48;;;;;;;14.45;6.75;;;333.30;1228.80;;;;;;4796458;30;20138;-80
2023/03/29 14:20:15;;;;;;;29.42;15.98;;;359.20;1228.80;;;;;;4959611;23;20048;-80
2023/03/29 14:36:32;;;;;;;8.10;4.78;;;384.80;1152.00;;;;;;4934097;27;20028;-81
2023/03/29 14:39:22;;;;;;;8.70;3.80;;;;;;;;;;4890728;29;20056;-81
2023/03/29 14:41:54;;;;;;;8.73;5.22;;;;;;;;;;4919629;29;20049;-80
2023/03/29 14:53:21;;;;;;;7.25;3.00;;;;;;;;;;5020118;23;20116;-79
2023/03/29 14:55:54;;;;;;;5.70;2.42;;;;;;;;;;4913106;29;20056;-78
2023/03/29 14:58:24;;;;;;;4.83;2.43;;;;;;;;;;4917450;29;20060;-79
2023/03/29 15:00:57;;;;;;;7.72;4.03;;;;;;;;;;4901921;29;20064;-79
2023/03/29 15:03:26;;;;;;;10.23;5.40;;;;;;;;;;4919530;29;20064;-78
2023/03/29 15:09:00;;;;;;;4.95;2.97;;;;;;;;;;4920552;29;20040;-80
2023/03/29 15:11:32;;;;;;;14.73;8.68;;;;;;;;;;4918623;29;20064;-79
2023/03/29 15:14:19;;;;;;;10.35;5.70;;;;;;;;;;4921794;29;20031;-79
2023/03/29 15:17:09;;;;;;;47.00;25.45;;;;;;;;;;4917427;29;20029;-78
2023/03/29 15:19:36;;;;;;;11.00;6.47;;;;;;;;;;4901377;29;20018;-79
2023/03/29 15:22:13;;;;;;;10.65;5.80;;;;;;;;;;4915035;29;20085;-77
2023/03/29 15:24:47;;;;;;;10.07;6.40;;;;;;;;;;4917034;29;20045;-78
2023/03/29 15:27:14;;;;;;;6.88;3.35;;;;;;;;;;4893950;29;20036;-78
2023/03/29 15:29:42;;;;;;;14.02;7.00;;;;;;;;;;4918049;29;20040;-78
2023/03/29 15:37:48;;;;;;;;;;;;;;;;;;5030056;23;20085;-80
2023/03/29 16:06:33;;;;;;;8.25;4.80;;;;;;;;;;963974;27;20297;-80
2023/03/29 16:11:35;;;;;;;36.03;16.73;;;;;;;;;;5192303;23;20104;-81
2023/03/29 16:14:01;;;;;;;42.38;18.30;;;;;;;;;;4922801;29;20017;-82
2023/03/29 16:16:34;;;;;;;19.45;8.70;;;;;;;;;;4933004;23;20047;-80
2023/03/29 16:19:02;;;;;;;10.13;4.97;;;;;;;;;;4941229;29;20043;-82
2023/03/29 16:21:30;;;;;;;21.50;10.20;;;;;;;;;;4958639;29;20055;-77
2023/03/29 16:23:56;;;;;;;26.38;14.70;;;;;;;;;;4942652;29;20039;-80
2023/03/29 16:26:44;;;;;;;22.98;12.82;;;;;;;;;;4959573;29;20046;-79
2023/03/29 16:31:47;;;;;;;48.78;25.70;;;;;;;;;;5142710;23;20075;-78
2023/03/29 16:34:21;;;;;;;60.72;31.85;;;;;;;;;;4944196;28;20037;-81
2023/03/29 16:41:00;;;;;;;24.58;15.35;;;332.90;1356.80;;;;;;4928973;29;20136;-78
2023/03/29 16:43:26;;;;;;;31.67;22.67;;;;;;;;;;4928262;29;20039;-78
2023/03/29 16:45:52;;;;;;;15.98;10.70;;;;;;;;;;4915800;29;20046;-78
2023/03/29 16:48:19;;;;;;;5.88;3.78;;;;;;;;;;4913282;29;20039;-76
2023/03/29 16:50:48;;;;;;;9.50;5.47;;;;;;;;;;4940984;29;20036;-78
2023/03/29 16:53:18;;;;;;;289.33;144.80;;;;;;;;;;4923054;29;20040;-78
2023/03/29 16:55:45;;;;;;;112.85;59.60;;;307.60;1459.20;;;;;;4924831;29;20116;-78
2023/03/29 16:58:11;;;;;;;49.10;27.98;;;307.50;1459.20;;;;;;4919505;29;20067;-79
2023/03/29 17:00:37;;;;;;;13.13;7.47;;;307.40;1510.40;;;;;;4913188;29;20028;-78
2023/03/29 17:03:03;;;;;;;4.30;2.83;;;307.20;1484.80;;;;;;4930055;29;20106;-78
2023/03/29 17:06:07;;;;;;;19.85;10.30;;;282.50;1766.40;;;;;;4904418;29;20534;-79
2023/03/29 17:08:33;;;;;;;15.18;6.72;;;;;;;;;;4921514;29;20071;-78